Time;durP1;ratioP1;P1;durP2;ratioP2;P2;SDS_P1;SDS_P2;PMS_P1;PMS_P2;Temp;Humidity;BMP_temperature;BMP_pressure;BME280_temperature;BME280_humidity;BME280_pressure;Samples;Min_cycle;Max_cycle;Signal;HPM_P1;HPM_P2
2021/10/28 00:14:33;;;;;;;70.95;40.00;;;;;;;3.30;100.00;101388.13;5116936;28;20086;-74
2021/10/28 00:17:08;;;;;;;74.75;40.83;;;;;;;3.26;100.00;101402.22;5117793;28;20065;-74
2021/10/28 00:19:37;;;;;;;75.82;40.95;;;;;;;3.20;100.00;101393.53;5117031;28;20048;-74
2021/10/28 00:22:06;;;;;;;73.35;41.38;;;;;;;3.17;100.00;101397.03;5117285;28;20433;-75
2021/10/28 00:24:36;;;;;;;72.68;40.97;;;;;;;3.19;100.00;101400.56;5116914;28;20457;-75
2021/10/28 00:27:05;;;;;;;68.65;40.35;;;;;;;3.20;100.00;101396.16;5117267;28;20386;-74
2021/10/28 00:29:33;;;;;;;69.30;39.83;;;;;;;3.13;100.00;101387.44;5116455;28;20130;-75
2021/10/28 00:32:03;;;;;;;72.63;41.70;;;;;;;3.19;100.00;101390.03;5117017;28;20043;-75
2021/10/28 00:34:31;;;;;;;73.82;41.63;;;;;;;3.19;100.00;101379.47;5116705;28;20046;-75
2021/10/28 00:37:00;;;;;;;75.50;42.00;;;;;;;3.20;100.00;101383.84;5116696;28;20489;-75
2021/10/28 00:39:28;;;;;;;73.47;42.00;;;;;;;3.17;100.00;101389.13;5116323;28;20108;-75
2021/10/28 00:41:58;;;;;;;73.57;42.35;;;;;;;3.14;100.00;101389.19;5117020;28;20051;-74
2021/10/28 00:44:26;;;;;;;72.82;41.20;;;;;;;3.19;100.00;101390.03;5116522;28;20056;-75
2021/10/28 00:46:55;;;;;;;75.60;42.13;;;;;;;3.17;100.00;101397.03;5116535;28;20050;-74
2021/10/28 00:49:24;;;;;;;70.13;40.80;;;;;;;3.14;100.00;101389.19;5116392;28;20042;-74
2021/10/28 00:51:52;;;;;;;77.63;42.25;;;;;;;3.14;100.00;101383.91;5116988;27;20040;-70
2021/10/28 00:54:22;;;;;;;79.55;42.70;;;;;;;3.09;100.00;101391.88;5116399;28;20044;-70
2021/10/28 00:56:51;;;;;;;76.85;42.42;;;;;;;3.02;100.00;101389.31;5116618;28;20067;-70
2021/10/28 00:59:21;;;;;;;76.38;41.47;;;;;;;3.00;100.00;101393.75;5116437;28;20047;-77
2021/10/28 01:01:49;;;;;;;75.85;42.08;;;;;;;2.91;100.00;101386.81;5116822;28;20044;-70
2021/10/28 01:04:20;;;;;;;77.55;41.65;;;;;;;3.08;100.00;101390.13;5116084;28;20040;-78
2021/10/28 01:06:49;;;;;;;81.95;43.00;;;;;;;3.06;100.00;101391.03;5116429;28;20096;-70
2021/10/28 01:09:17;;;;;;;78.30;42.65;;;;;;;3.06;100.00;101391.91;5116025;28;20039;-70
2021/10/28 01:11:46;;;;;;;75.65;41.22;;;;;;;2.96;100.00;101394.66;5116234;28;20130;-75
2021/10/28 01:14:14;;;;;;;75.07;43.08;;;;;;;2.96;100.00;101387.63;5116103;28;20544;-75
2021/10/28 01:16:44;;;;;;;77.40;41.33;;;;;;;3.10;100.00;101382.22;5115108;28;20043;-75
2021/10/28 01:19:12;;;;;;;83.70;41.95;;;;;;;2.99;100.00;101377.06;5116102;28;20047;-74
2021/10/28 01:21:43;;;;;;;83.00;44.67;;;;;;;2.95;100.00;101380.59;5115533;28;20075;-75
2021/10/28 01:24:12;;;;;;;80.55;43.22;;;;;;;2.94;100.00;101378.88;5115929;28;20040;-75
2021/10/28 01:26:41;;;;;;;79.60;44.25;;;;;;;2.92;100.00;101380.66;5115696;28;20042;-75
2021/10/28 01:29:09;;;;;;;74.57;40.33;;;;;;;3.10;100.00;101387.50;5115643;28;20119;-75
2021/10/28 01:31:37;;;;;;;78.22;44.00;;;;;;;3.17;100.00;101390.00;5115599;28;20043;-70
2021/10/28 01:34:07;;;;;;;76.38;42.90;;;;;;;3.07;100.00;101382.22;5115924;28;20480;-70
2021/10/28 01:36:35;;;;;;;74.28;41.53;;;;;;;2.98;100.00;101387.59;5115254;28;20067;-70
2021/10/28 01:39:16;;;;;;;80.38;43.25;;;;;;;2.83;100.00;101384.25;5115849;28;20043;-70
2021/10/28 01:41:45;;;;;;;77.63;43.13;;;;;;;2.79;100.00;101381.66;5115221;28;20047;-70
2021/10/28 01:44:14;;;;;;;78.53;43.60;;;;;;;2.74;100.00;101384.34;5115606;28;20130;-69
2021/10/28 01:46:42;;;;;;;79.60;43.40;;;;;;;2.69;100.00;101380.00;5115369;28;20054;-70
2021/10/28 01:49:20;;;;;;;74.30;42.33;;;;;;;2.66;100.00;101380.91;5115335;28;20111;-70
2021/10/28 01:51:49;;;;;;;73.10;42.42;;;;;;;2.66;100.00;101380.03;5115696;28;20047;-70
2021/10/28 01:54:19;;;;;;;75.72;43.35;;;;;;;2.56;100.00;101379.25;5115540;28;20096;-70
2021/10/28 01:56:47;;;;;;;73.32;41.08;;;;;;;2.53;100.00;101376.66;5114857;28;20043;-70
2021/10/28 01:59:16;;;;;;;72.43;41.83;;;;;;;2.57;100.00;101375.72;5115368;28;20066;-69
2021/10/28 02:01:44;;;;;;;83.45;42.50;;;;;;;2.52;100.00;101382.81;5115025;28;20554;-70
2021/10/28 02:04:14;;;;;;;77.47;43.92;;;;;;;2.47;100.00;101374.06;5115218;28;20092;-70
2021/10/28 02:06:42;;;;;;;77.97;43.28;;;;;;;2.52;100.00;101372.28;5115040;28;20093;-71
2021/10/28 02:09:11;;;;;;;71.80;41.83;;;;;;;2.50;100.00;101374.03;5114833;28;20093;-71
2021/10/28 02:11:41;;;;;;;78.50;42.30;;;;;;;2.45;100.00;101371.44;5114791;28;20047;-71
2021/10/28 02:14:09;;;;;;;76.00;42.10;;;;;;;2.42;100.00;101366.22;5114926;28;20515;-72
2021/10/28 02:16:37;;;;;;;76.22;44.08;;;;;;;2.37;100.00;101372.41;5114751;28;20122;-72
2021/10/28 02:19:06;;;;;;;81.03;43.90;;;;;;;2.33;100.00;101365.44;5115036;28;20480;-72
2021/10/28 02:21:34;;;;;;;76.57;44.72;;;;;;;2.34;100.00;101361.91;5114346;28;20046;-72
2021/10/28 02:24:02;;;;;;;75.57;42.97;;;;;;;2.33;100.00;101362.81;5114934;28;20036;-71
2021/10/28 02:26:31;;;;;;;76.97;43.17;;;;;;;2.37;100.00;101361.88;5114572;28;20071;-72
2021/10/28 02:29:02;;;;;;;77.13;41.75;;;;;;;2.36;100.00;101363.63;5113980;28;20524;-72
2021/10/28 02:31:31;;;;;;;71.95;41.08;;;;;;;2.47;100.00;101367.03;5114510;28;20040;-72
2021/10/28 02:34:00;;;;;;;74.10;40.30;;;;;;;2.73;100.00;101366.78;5115248;28;20053;-70
2021/10/28 02:36:28;;;;;;;76.35;42.42;;;;;;;2.69;100.00;101370.31;5114311;28;20050;-72
2021/10/28 02:38:56;;;;;;;74.18;41.15;;;;;;;2.72;100.00;101372.97;5114815;28;20044;-71
2021/10/28 02:41:25;;;;;;;77.70;40.15;;;;;;;2.69;100.00;101370.31;5114287;28;20039;-71
2021/10/28 02:43:53;;;;;;;78.55;40.80;;;;;;;2.65;100.00;101376.53;5114076;28;20048;-71
2021/10/28 02:46:23;;;;;;;74.47;41.42;;;;;;;2.59;100.00;101364.28;5114235;28;20040;-72
2021/10/28 02:48:51;;;;;;;74.90;40.72;;;;;;;2.55;100.00;101366.97;5114108;28;20044;-71
2021/10/28 02:51:20;;;;;;;76.40;41.35;;;;;;;2.46;100.00;101361.78;5114092;28;20039;-72
2021/10/28 02:53:48;;;;;;;79.88;42.47;;;;;;;2.32;100.00;101364.56;5112992;28;20055;-73
2021/10/28 02:56:17;;;;;;;75.82;40.33;;;;;;;2.26;100.00;101362.84;5114357;28;20396;-73
2021/10/28 02:58:45;;;;;;;76.95;41.63;;;;;;;2.21;100.00;101362.00;5113971;28;20438;-71
2021/10/28 03:01:13;;;;;;;72.55;41.47;;;;;;;2.23;100.00;101360.25;5114150;28;20100;-71
2021/10/28 03:03:43;;;;;;;78.10;43.35;;;;;;;2.19;100.00;101362.91;5113580;28;20043;-70
2021/10/28 03:06:11;;;;;;;73.55;41.95;;;;;;;2.20;100.00;101365.50;5114179;28;20405;-70
2021/10/28 03:08:39;;;;;;;75.30;41.90;;;;;;;2.13;100.00;101368.22;5113435;28;20404;-71
2021/10/28 03:11:08;;;;;;;80.88;42.55;;;;;;;2.20;100.00;101373.41;5114036;28;20040;-70
2021/10/28 03:13:37;;;;;;;73.05;40.53;;;;;;;2.21;100.00;101366.38;5113278;28;20031;-69
2021/10/28 03:16:15;;;;;;;74.15;42.22;;;;;;;2.15;100.00;101364.69;5113953;28;20469;-71
2021/10/28 03:27:04;;;;;;;67.47;38.38;;;;;;;2.56;100.00;101364.31;5113703;28;20043;-68
2021/10/28 03:29:32;;;;;;;67.72;39.53;;;;;;;2.59;100.00;101363.41;5113498;28;20473;-68
2021/10/28 03:32:01;;;;;;;66.97;40.00;;;;;;;2.30;100.00;101363.69;5113734;28;20065;-68
2021/10/28 03:34:31;;;;;;;66.28;38.75;;;;;;;2.41;100.00;101364.44;5113585;28;20455;-76
2021/10/28 03:37:03;;;;;;;70.63;40.03;;;;;;;2.45;100.00;101370.59;5113765;28;20477;-68
2021/10/28 03:39:49;;;;;;;65.15;38.25;;;;;;;2.55;100.00;101377.50;5113064;28;20476;-70
2021/10/28 03:42:53;;;;;;;70.68;38.05;;;;;;;2.66;100.00;101382.66;5113388;28;20048;-72
2021/10/28 04:05:29;;;;;;;75.03;40.45;;;;;;;2.48;100.00;101383.72;5113474;28;20044;-72
2021/10/28 04:08:20;;;;;;;66.32;37.22;;;;;;;2.40;100.00;101390.81;5113332;28;20044;-72
2021/10/28 04:16:42;;;;;;;67.18;36.75;;;;;;;2.49;100.00;101388.09;5113337;28;20481;-71
2021/10/28 04:19:27;;;;;;;67.90;38.00;;;;;;;2.33;100.00;101389.13;5113335;28;20473;-71
2021/10/28 04:28:53;;;;;;;70.03;36.95;;;;;;;2.38;100.00;101387.31;5112693;28;20043;-71
2021/10/28 04:30:26;;;;;;;63.35;37.33;;;;;;;2.34;100.00;101388.25;5112945;28;20043;-69
2021/10/28 04:32:55;;;;;;;68.70;36.65;;;;;;;2.40;100.00;101393.44;5112614;28;20390;-69
2021/10/28 04:35:23;;;;;;;68.32;36.28;;;;;;;2.32;100.00;101390.00;5113147;28;20092;-66
2021/10/28 04:37:51;;;;;;;63.00;36.42;;;;;;;2.34;100.00;101393.50;5112784;28;20123;-66
2021/10/28 04:40:21;;;;;;;67.93;36.15;;;;;;;2.40;100.00;101389.03;5113016;28;20044;-70
2021/10/28 04:42:50;;;;;;;66.65;36.22;;;;;;;2.30;100.00;101388.25;5112820;28;20039;-66
2021/10/28 04:45:18;;;;;;;66.03;37.97;;;;;;;2.11;100.00;101384.00;5113055;28;20101;-64
2021/10/28 04:47:49;;;;;;;70.07;36.28;;;;;;;2.12;100.00;101388.38;5112726;28;20040;-66
2021/10/28 04:50:17;;;;;;;65.25;36.13;;;;;;;2.15;100.00;101385.75;5113072;28;20039;-65
2021/10/28 04:52:45;;;;;;;63.25;36.83;;;;;;;2.17;100.00;101380.47;5114718;28;20047;-66
2021/10/28 04:55:14;;;;;;;59.95;35.60;;;;;;;2.11;100.00;101386.63;5116563;27;20039;-67
2021/10/28 04:57:43;;;;;;;65.22;38.08;;;;;;;2.24;100.00;101383.03;5115533;28;20043;-67
2021/10/28 05:00:12;;;;;;;66.07;37.88;;;;;;;2.18;100.00;101383.09;5116326;28;20044;-66
2021/10/28 05:02:41;;;;;;;69.07;38.65;;;;;;;2.15;100.00;101379.63;5115879;28;20063;-67
2021/10/28 05:05:09;;;;;;;67.80;37.67;;;;;;;2.06;100.00;101385.81;5116079;28;20048;-69
2021/10/28 05:07:37;;;;;;;66.72;38.13;;;;;;;2.01;100.00;101385.84;5115827;28;20043;-71
2021/10/28 05:10:06;;;;;;;71.28;40.47;;;;;;;1.98;100.00;101390.25;5115462;28;20044;-67
2021/10/28 05:12:34;;;;;;;66.28;37.67;;;;;;;2.03;100.00;101393.75;5115342;28;20039;-67
2021/10/28 05:15:05;;;;;;;70.60;40.15;;;;;;;1.91;100.00;101393.81;5115507;28;20043;-68
2021/10/28 05:17:33;;;;;;;75.85;40.47;;;;;;;1.89;100.00;101391.19;5115317;28;20036;-68
2021/10/28 05:20:02;;;;;;;68.60;39.00;;;;;;;1.91;100.00;101399.06;5115474;28;20096;-67
2021/10/28 05:22:31;;;;;;;68.85;38.35;;;;;;;2.07;100.00;101395.47;5115658;28;20491;-70
2021/10/28 05:24:59;;;;;;;67.95;37.97;;;;;;;2.03;100.00;101399.00;5115082;28;20088;-70
2021/10/28 05:27:29;;;;;;;73.47;40.25;;;;;;;2.03;100.00;101404.28;5112451;28;20443;-68
2021/10/28 05:30:02;;;;;;;69.38;38.97;;;;;;;2.05;100.00;101407.75;5115016;28;20031;-68
2021/10/28 05:32:32;;;;;;;69.05;37.90;;;;;;;2.15;100.00;101405.94;5113165;28;20067;-64
2021/10/28 05:35:00;;;;;;;66.70;35.97;;;;;;;2.18;100.00;101403.28;5115229;28;20546;-66
2021/10/28 05:37:29;;;;;;;59.17;34.25;;;;;;;2.24;100.00;101413.78;5115922;28;20042;-66
2021/10/28 05:40:00;;;;;;;63.88;35.72;;;;;;;2.18;100.00;101414.69;5115633;28;20093;-67
2021/10/28 05:42:29;;;;;;;61.55;34.78;;;;;;;2.12;100.00;101416.47;5115527;28;20055;-66
2021/10/28 05:44:58;;;;;;;68.25;36.63;;;;;;;2.18;100.00;101422.56;5115512;28;20052;-67
2021/10/28 05:47:26;;;;;;;64.35;35.75;;;;;;;2.05;100.00;101418.28;5115822;28;20385;-66
2021/10/28 05:50:19;;;;;;;66.93;35.08;;;;;;;2.19;100.00;101419.06;5115285;28;20047;-66
2021/10/28 05:52:48;;;;;;;63.78;34.72;;;;;;;2.21;100.00;101425.16;5115511;28;20049;-66
2021/10/28 05:55:16;;;;;;;68.40;36.60;;;;;;;2.20;100.00;101425.19;5115479;28;20036;-65
2021/10/28 05:57:45;;;;;;;70.13;38.58;;;;;;;2.04;100.00;101427.06;5115083;28;20043;-67
2021/10/28 06:00:14;;;;;;;70.63;38.13;;;;;;;2.05;100.00;101434.06;5114877;28;20032;-68
2021/10/28 06:02:42;;;;;;;69.25;37.42;;;;;;;2.11;100.00;101427.88;5112321;28;20066;-69
2021/10/28 06:05:11;;;;;;;63.88;37.22;;;;;;;2.28;100.00;101440.03;5114575;28;20119;-69
2021/10/28 06:07:42;;;;;;;69.40;38.38;;;;;;;2.32;100.00;101437.38;5105200;28;20044;-69
2021/10/28 06:10:12;;;;;;;67.43;37.72;;;;;;;2.44;100.00;101439.94;5114639;28;20488;-68
2021/10/28 06:12:43;;;;;;;63.75;36.63;;;;;;;2.60;100.00;101444.19;5112112;28;20097;-68
2021/10/28 06:15:12;;;;;;;61.75;36.70;;;;;;;2.51;100.00;101445.16;5114596;28;20481;-67
2021/10/28 06:17:48;;;;;;;67.07;37.42;;;;;;;2.43;100.00;101454.00;5115090;28;20484;-67
2021/10/28 06:20:17;;;;;;;64.15;37.35;;;;;;;2.45;100.00;101450.47;5115326;28;20067;-68
2021/10/28 06:22:48;;;;;;;65.35;36.97;;;;;;;2.50;100.00;101447.78;5114965;28;20472;-68
2021/10/28 06:25:16;;;;;;;64.57;37.58;;;;;;;2.48;100.00;101450.44;5114682;28;20061;-69
2021/10/28 06:27:45;;;;;;;67.35;37.80;;;;;;;2.56;100.00;101453.88;5114330;28;20051;-69
2021/10/28 06:30:14;;;;;;;65.75;37.38;;;;;;;2.59;100.00;101458.22;5115037;28;20430;-67
2021/10/28 06:32:44;;;;;;;67.35;36.95;;;;;;;2.56;100.00;101448.59;5114643;28;20134;-67
2021/10/28 06:35:12;;;;;;;65.00;36.97;;;;;;;2.61;100.00;101448.59;5114347;28;20449;-66
2021/10/28 06:37:46;;;;;;;66.72;37.13;;;;;;;2.61;100.00;101455.63;5114569;28;20044;-69
2021/10/28 06:40:20;;;;;;;71.63;39.03;;;;;;;2.75;100.00;101456.34;5114540;28;20036;-68
2021/10/28 06:42:49;;;;;;;67.30;37.80;;;;;;;2.88;100.00;101450.94;5114244;28;20044;-69
2021/10/28 06:45:18;;;;;;;65.90;38.28;;;;;;;3.06;100.00;101462.19;5114629;28;20051;-68
2021/10/28 06:47:47;;;;;;;68.28;38.25;;;;;;;3.05;100.00;101466.59;5114227;28;20067;-68
2021/10/28 06:50:19;;;;;;;67.70;37.95;;;;;;;3.21;100.00;101463.81;5114422;28;20035;-68
2021/10/28 06:52:52;;;;;;;67.28;37.58;;;;;;;3.34;100.00;101470.69;5114174;28;20050;-68
2021/10/28 06:55:37;;;;;;;64.13;37.33;;;;;;;3.37;100.00;101465.38;5114489;28;20042;-68
2021/10/28 07:03:38;;;;;;;65.30;38.08;;;;;;;3.66;100.00;101467.66;5114350;28;20043;-68
2021/10/28 07:06:10;;;;;;;67.00;38.53;;;;;;;3.61;100.00;101466.88;5113943;28;20207;-68
2021/10/28 07:08:40;;;;;;;69.53;38.05;;;;;;;3.69;100.00;101465.88;5114223;28;20066;-68
2021/10/28 07:11:13;;;;;;;68.47;38.65;;;;;;;3.63;100.00;101465.94;5113835;28;20046;-68
2021/10/28 07:13:44;;;;;;;67.50;39.53;;;;;;;3.75;100.00;101464.91;5114063;28;20039;-67
2021/10/28 07:16:22;;;;;;;60.85;36.13;;;;;;;3.80;100.00;101471.03;5114006;28;20374;-67
2021/10/28 07:18:56;;;;;;;67.05;37.83;;;;;;;4.05;100.00;101463.63;5113582;28;20122;-68
2021/10/28 07:24:46;;;;;;;66.18;37.97;;;;;;;4.04;100.00;101461.88;5050844;28;20045;-68
2021/10/28 07:30:22;;;;;;;64.75;37.20;;;;;;;4.26;100.00;101465.97;5051516;28;20055;-68
2021/10/28 07:33:18;;;;;;;65.47;37.70;;;;;;;4.49;100.00;101462.97;5113602;28;20058;-68
2021/10/28 07:36:00;;;;;;;66.35;37.13;;;;;;;4.58;100.00;101467.25;5113863;28;20035;-67
2021/10/28 07:38:55;;;;;;;63.80;35.50;;;;;;;4.73;100.00;101472.28;5113861;28;20036;-66
2021/10/28 08:15:12;;;;;;;60.10;36.85;;;;;;;5.96;100.00;101449.63;5112729;28;20507;-68
2021/10/28 08:20:43;;;;;;;63.97;37.65;;;;;;;6.26;100.00;101446.28;5112997;28;20055;-67
2021/10/28 08:23:16;;;;;;;63.78;37.20;;;;;;;6.24;100.00;101445.44;5112879;28;20047;-67
2021/10/28 08:28:45;;;;;;;62.00;37.70;;;;;;;6.22;100.00;101447.25;5117020;28;20570;-67
2021/10/28 08:31:18;;;;;;;67.03;39.00;;;;;;;6.22;100.00;101441.97;5117058;28;20043;-68
2021/10/28 08:33:48;;;;;;;68.82;38.83;;;;;;;6.31;100.00;101444.41;5117130;28;20122;-67
2021/10/28 08:36:24;;;;;;;62.75;39.10;;;;;;;6.37;100.00;101448.69;5115474;28;20048;-67
2021/10/28 08:38:52;;;;;;;69.35;39.50;;;;;;;6.34;100.00;101456.69;5116902;28;20062;-67
2021/10/28 08:41:22;;;;;;;67.97;39.10;;;;;;;6.65;100.00;101442.69;5117295;28;20043;-67
2021/10/28 08:43:54;;;;;;;63.67;38.75;;;;;;;6.75;100.00;101442.41;5116798;28;20043;-68
2021/10/28 08:46:25;;;;;;;64.28;36.75;;;;;;;6.88;100.00;101448.31;5116685;28;20039;-67
2021/10/28 08:48:57;;;;;;;67.72;38.03;;;;;;;6.97;100.00;101448.06;5116689;28;20042;-75
2021/10/28 08:51:34;;;;;;;64.43;37.10;;;;;;;6.87;100.00;101450.09;5117184;28;20047;-68
2021/10/28 08:54:42;;;;;;;59.75;36.17;;;;;;;7.02;100.00;101445.28;5116563;28;20043;-68
2021/10/28 08:57:22;;;;;;;55.45;34.38;;;;;;;7.01;100.00;101454.16;5116576;28;20040;-67
2021/10/28 09:25:37;;;;;;;49.42;29.75;;;;;;;7.98;99.22;101448.72;5116310;28;20047;-67
2021/10/28 09:28:26;;;;;;;46.72;30.33;;;;;;;8.14;98.13;101440.28;5115679;28;20036;-68
2021/10/28 09:31:06;;;;;;;53.58;29.70;;;;;;;8.28;96.82;101440.69;5116219;28;20468;-68
2021/10/28 09:33:43;;;;;;;45.25;29.60;;;;;;;8.29;97.13;101443.28;5116002;28;20041;-68
2021/10/28 09:45:38;;;;;;;38.97;25.83;;;;;;;8.49;92.11;101429.41;5109604;28;20055;-68
2021/10/28 09:48:46;;;;;;;40.17;25.45;;;;;;;8.57;90.94;101431.81;5115516;28;20044;-67
2021/10/28 09:51:18;;;;;;;43.40;25.50;;;;;;;8.64;90.68;101429.81;5115319;28;20503;-68
2021/10/28 09:54:05;;;;;;;41.03;25.23;;;;;;;8.69;90.45;101427.88;5115636;28;20413;-68
2021/10/28 09:59:27;;;;;;;37.88;23.90;;;;;;;8.84;88.21;101427.34;5115368;28;20393;-68
2021/10/28 10:02:08;;;;;;;40.15;23.73;;;;;;;8.89;87.90;101426.28;5115500;28;20413;-68
2021/10/28 10:04:39;;;;;;;39.03;23.50;;;;;;;8.87;87.57;101416.59;5115482;28;20392;-68
2021/10/28 10:07:09;;;;;;;42.60;24.35;;;;;;;8.96;88.88;101416.28;5114949;28;20101;-69
2021/10/28 10:09:38;;;;;;;41.25;25.23;;;;;;;8.99;88.96;101410.88;5115708;28;20047;-69
2021/10/28 10:12:11;;;;;;;38.25;24.08;;;;;;;9.22;86.26;101414.50;5115041;28;20067;-69
2021/10/28 10:14:41;;;;;;;35.15;22.75;;;;;;;9.19;86.17;101412.81;5114902;28;20071;-68
2021/10/28 10:17:11;;;;;;;36.63;21.98;;;;;;;9.27;85.31;101409.88;5115094;28;20048;-69
2021/10/28 10:19:43;;;;;;;33.72;20.88;;;;;;;9.29;84.95;101403.56;5114820;28;20097;-68
2021/10/28 10:22:20;;;;;;;35.67;20.98;;;;;;;9.34;84.34;101406.03;5114981;28;20118;-69
2021/10/28 10:25:04;;;;;;;31.23;19.75;;;;;;;9.29;84.32;101406.22;5115174;28;20060;-68
2021/10/28 11:30:15;;;;;;;24.38;16.08;;;;;;;10.52;75.94;101320.50;5113929;28;20036;-68
2021/10/28 11:33:07;;;;;;;27.80;16.85;;;;;;;10.48;76.03;101316.22;5113942;28;20051;-68
2021/10/28 12:28:01;;;;;;;20.55;13.50;;;;;;;11.33;71.25;101249.22;5116957;27;20047;-68
2021/10/28 12:44:57;;;;;;;22.77;12.75;;;;;;;11.22;72.11;101231.03;5115626;28;20074;-68
2021/10/28 13:05:35;;;;;;;20.40;12.65;;;;;;;10.89;73.83;101209.44;5106077;28;20056;-68
2021/10/28 13:50:17;;;;;;;21.58;13.23;;;;;;;11.59;69.81;101173.16;5115885;28;20411;-68
2021/10/28 13:53:14;;;;;;;22.33;12.98;;;;;;;11.85;68.82;101174.53;5115873;28;20070;-68
2021/10/28 14:21:15;;;;;;;19.83;12.05;;;;;;;11.29;70.71;101178.19;5115111;28;20477;-69
2021/10/28 15:30:22;;;;;;;21.67;11.85;;;;;;;10.09;76.05;101153.47;5113683;28;20036;-68
2021/10/28 15:35:40;;;;;;;21.92;12.32;;;;;;;9.96;76.86;101152.28;5112027;28;20044;-69
2021/10/28 15:38:18;;;;;;;24.15;12.77;;;;;;;9.87;77.26;101158.00;5113510;28;20157;-68
2021/10/28 15:41:05;;;;;;;26.25;14.02;;;;;;;9.92;77.27;101155.97;5113618;28;20494;-68
2021/10/28 16:00:53;;;;;;;23.30;14.20;;;;;;;9.71;78.92;101155.97;5112835;28;20108;-71
2021/10/28 16:22:55;;;;;;;22.63;13.75;;;;;;;9.55;80.20;101149.53;5112951;28;20066;-67
2021/10/28 16:25:23;;;;;;;24.70;14.43;;;;;;;9.60;80.07;101142.25;5113138;28;20050;-68
2021/10/28 16:27:52;;;;;;;25.02;14.40;;;;;;;9.53;80.44;101146.09;5112829;28;20043;-67
2021/10/28 16:30:20;;;;;;;29.33;15.88;;;;;;;9.41;81.05;101147.47;5112914;28;20112;-68
2021/10/28 16:32:50;;;;;;;29.92;15.65;;;;;;;9.54;81.37;101138.97;5112874;28;20120;-67
2021/10/28 16:35:18;;;;;;;32.20;18.83;;;;;;;9.69;80.45;101146.31;5112929;28;20044;-68
2021/10/28 16:37:46;;;;;;;37.05;19.50;;;;;;;9.63;80.68;101152.75;5112257;28;20396;-68
2021/10/28 16:40:15;;;;;;;37.90;20.38;;;;;;;9.51;81.37;101155.94;5110730;28;20051;-68
2021/10/28 16:42:43;;;;;;;36.72;21.20;;;;;;;9.59;80.92;101153.84;5112125;28;20050;-68
2021/10/28 16:45:12;;;;;;;38.05;20.38;;;;;;;9.58;81.25;101159.22;5112816;28;20052;-72
2021/10/28 16:47:42;;;;;;;39.17;21.20;;;;;;;9.52;81.58;101154.16;5113178;28;20044;-70
2021/10/28 16:50:14;;;;;;;38.40;21.10;;;;;;;9.31;82.89;101159.44;5116970;28;20109;-69
2021/10/28 16:52:42;;;;;;;33.83;20.02;;;;;;;9.24;83.48;101159.72;5115840;28;20040;-70
2021/10/28 16:55:10;;;;;;;34.45;19.40;;;;;;;9.20;83.97;101166.97;5115214;28;20070;-70
2021/10/28 16:57:39;;;;;;;33.67;19.38;;;;;;;9.20;84.03;101163.44;5113340;28;20051;-72
2021/10/28 17:00:08;;;;;;;37.13;20.48;;;;;;;9.16;84.17;101168.88;5115005;28;20062;-72
2021/10/28 17:02:37;;;;;;;41.10;22.13;;;;;;;9.16;84.27;101162.69;5115321;28;20070;-73
2021/10/28 17:05:06;;;;;;;44.28;22.27;;;;;;;9.21;84.26;101170.50;5115782;28;20036;-68
2021/10/28 17:07:36;;;;;;;45.10;23.55;;;;;;;9.13;84.14;101168.16;5115330;28;20055;-73
2021/10/28 17:10:05;;;;;;;51.72;25.40;;;;;;;9.10;84.68;101161.16;5115208;28;20047;-69
2021/10/28 17:12:35;;;;;;;47.58;24.75;;;;;;;9.03;84.65;101164.97;5113848;28;20054;-71
2021/10/28 17:15:05;;;;;;;49.55;27.95;;;;;;;8.95;84.99;101172.38;5115740;28;20100;-72
2021/10/28 17:17:35;;;;;;;49.28;26.90;;;;;;;8.92;84.81;101169.84;5114056;28;20052;-68
2021/10/28 17:20:06;;;;;;;54.97;28.92;;;;;;;8.85;85.25;101173.66;5115295;28;20062;-74
2021/10/28 17:22:39;;;;;;;51.92;28.23;;;;;;;8.90;85.19;101166.41;5114795;28;20138;-78
2021/10/28 17:25:16;;;;;;;62.50;30.42;;;;;;;8.80;85.64;101165.88;5114748;28;20043;-73
2021/10/28 17:27:46;;;;;;;57.58;29.23;;;;;;;8.84;85.74;101167.50;5112995;28;20039;-71
2021/10/28 17:30:15;;;;;;;48.15;26.60;;;;;;;8.75;86.11;101166.97;5111972;28;20085;-71
2021/10/28 17:32:45;;;;;;;46.13;26.70;;;;;;;8.77;86.10;101179.28;5114500;28;20126;-69
2021/10/28 17:35:14;;;;;;;47.03;24.75;;;;;;;8.75;86.36;101167.84;5115206;27;20138;-70
2021/10/28 17:37:44;;;;;;;47.83;26.45;;;;;;;8.75;86.25;101182.94;5114453;28;20039;-67
2021/10/28 17:40:16;;;;;;;48.10;27.02;;;;;;;8.67;86.52;101177.03;5114527;28;20127;-69
2021/10/28 17:42:47;;;;;;;49.08;26.08;;;;;;;8.64;86.92;101179.81;5114409;28;20079;-71
2021/10/28 17:45:15;;;;;;;53.50;27.50;;;;;;;8.46;87.67;101182.22;5114912;28;20048;-71
2021/10/28 17:47:45;;;;;;;47.75;27.92;;;;;;;8.38;88.02;101178.97;5114374;28;20427;-73
2021/10/28 17:50:14;;;;;;;49.97;27.80;;;;;;;8.39;88.08;101180.69;5114671;28;20036;-71
2021/10/28 17:52:44;;;;;;;53.25;29.30;;;;;;;8.45;87.95;101176.97;5114389;28;20055;-74
2021/10/28 17:55:12;;;;;;;50.25;30.05;;;;;;;8.57;87.45;101180.03;5114252;28;20096;-76
2021/10/28 17:57:44;;;;;;;57.55;31.38;;;;;;;8.48;87.72;101180.38;5114657;28;20078;-73
2021/10/28 18:00:13;;;;;;;49.60;29.35;;;;;;;8.37;88.31;101185.22;5114024;28;20047;-73
2021/10/28 18:02:42;;;;;;;54.55;29.13;;;;;;;8.29;88.64;101184.59;5113547;28;20052;-76
2021/10/28 18:05:11;;;;;;;48.75;28.70;;;;;;;8.13;89.24;101178.09;5114480;28;20074;-74
2021/10/28 18:07:39;;;;;;;47.10;28.35;;;;;;;8.12;89.64;101179.03;5113467;28;20052;-74
2021/10/28 18:10:10;;;;;;;54.97;30.38;;;;;;;8.14;89.72;101170.06;5113750;28;20477;-75
2021/10/28 18:12:38;;;;;;;53.42;29.70;;;;;;;8.10;89.81;101170.22;5114481;28;20036;-73
2021/10/28 18:15:09;;;;;;;54.83;31.25;;;;;;;8.02;90.23;101171.38;5114030;28;20522;-72
2021/10/28 18:17:37;;;;;;;57.60;31.00;;;;;;;8.00;90.63;101174.97;5114521;28;20063;-71
2021/10/28 18:20:08;;;;;;;53.20;31.20;;;;;;;7.98;90.45;101175.03;5112896;28;20051;-72
2021/10/28 18:22:38;;;;;;;57.13;31.75;;;;;;;7.89;90.90;101175.34;5114336;28;20040;-71
2021/10/28 18:25:10;;;;;;;47.80;29.20;;;;;;;7.78;91.49;101174.00;5113658;28;20063;-72
2021/10/28 18:27:40;;;;;;;46.78;28.38;;;;;;;7.67;92.11;101174.38;5114452;28;20697;-71
2021/10/28 18:30:12;;;;;;;56.33;30.10;;;;;;;7.58;92.72;101169.34;5113366;28;20047;-73
2021/10/28 18:32:42;;;;;;;53.72;29.35;;;;;;;7.59;92.91;101169.31;5113897;28;20043;-74
2021/10/28 18:35:12;;;;;;;58.75;28.90;;;;;;;7.58;92.82;101169.34;5113315;28;20047;-72
2021/10/28 18:37:43;;;;;;;55.88;30.75;;;;;;;7.53;92.97;101171.28;5113716;28;20473;-72
2021/10/28 18:40:13;;;;;;;54.15;29.27;;;;;;;7.58;92.77;101166.69;5113155;28;20059;-73
2021/10/28 18:42:44;;;;;;;55.90;34.65;;;;;;;7.59;92.90;101176.41;5113833;28;20062;-72
2021/10/28 18:45:14;;;;;;;55.95;32.67;;;;;;;7.43;93.86;101176.91;5112845;28;20057;-73
2021/10/28 18:47:49;;;;;;;55.17;31.98;;;;;;;7.34;94.25;101179.88;5113659;28;20492;-79
2021/10/28 18:50:18;;;;;;;53.17;32.08;;;;;;;7.26;94.58;101173.94;5113378;28;20369;-73
2021/10/28 18:52:47;;;;;;;50.90;30.75;;;;;;;7.21;95.03;101174.97;5113777;28;20370;-72
2021/10/28 18:55:17;;;;;;;55.38;30.92;;;;;;;7.11;95.32;101171.75;5113288;28;20031;-72
2021/10/28 18:57:46;;;;;;;53.75;31.90;;;;;;;7.01;96.17;101179.13;5113506;28;20044;-72
2021/10/28 19:00:14;;;;;;;54.40;32.38;;;;;;;6.89;96.81;101174.19;5112871;28;20047;-72
2021/10/28 19:02:43;;;;;;;56.75;31.90;;;;;;;6.82;98.04;101178.81;5113366;28;20065;-73
2021/10/28 19:05:11;;;;;;;55.15;31.30;;;;;;;6.71;98.59;101175.63;5113166;28;20045;-73
2021/10/28 19:07:44;;;;;;;49.28;27.17;;;;;;;6.76;100.00;101176.38;5113209;28;20432;-73
2021/10/28 19:10:13;;;;;;;49.13;27.77;;;;;;;6.66;100.00;101172.25;5112389;28;20056;-74
2021/10/28 19:12:44;;;;;;;47.70;26.67;;;;;;;6.61;100.00;101171.50;5112938;28;20096;-73
2021/10/28 19:15:15;;;;;;;42.95;26.52;;;;;;;6.54;100.00;101180.53;5113089;28;20044;-75